sensor_id;sensor_type;location;lat;lon;timestamp;temperature;humidity
40932;DHT22;36257;46.052;12.540;2023-06-14T00:01:38;18.60;94.80
40932;DHT22;36257;46.052;12.540;2023-06-14T00:04:04;18.60;94.50
40932;DHT22;36257;46.052;12.540;2023-06-14T00:06:31;18.50;94.30
40932;DHT22;36257;46.052;12.540;2023-06-14T00:08:57;18.60;93.90
40932;DHT22;36257;46.052;12.540;2023-06-14T00:11:22;18.60;93.80
40932;DHT22;36257;46.052;12.540;2023-06-14T00:13:48;18.50;93.60
40932;DHT22;36257;46.052;12.540;2023-06-14T00:16:14;18.60;94.00
40932;DHT22;36257;46.052;12.540;2023-06-14T00:18:39;18.60;93.60
40932;DHT22;36257;46.052;12.540;2023-06-14T00:21:05;18.60;93.50
40932;DHT22;36257;46.052;12.540;2023-06-14T00:23:31;18.60;93.60
40932;DHT22;36257;46.052;12.540;2023-06-14T00:25:56;18.60;93.50
40932;DHT22;36257;46.052;12.540;2023-06-14T00:28:22;18.50;93.40
40932;DHT22;36257;46.052;12.540;2023-06-14T00:30:48;18.50;93.50
40932;DHT22;36257;46.052;12.540;2023-06-14T00:33:14;18.50;93.80
40932;DHT22;36257;46.052;12.540;2023-06-14T00:35:39;18.50;95.10
40932;DHT22;36257;46.052;12.540;2023-06-14T00:38:05;18.40;96.10
40932;DHT22;36257;46.052;12.540;2023-06-14T00:40:31;18.30;95.80
40932;DHT22;36257;46.052;12.540;2023-06-14T00:42:56;18.30;96.00
40932;DHT22;36257;46.052;12.540;2023-06-14T00:45:22;18.20;96.40
40932;DHT22;36257;46.052;12.540;2023-06-14T00:47:49;18.30;95.70
40932;DHT22;36257;46.052;12.540;2023-06-14T00:50:18;18.30;95.20
40932;DHT22;36257;46.052;12.540;2023-06-14T00:52:45;18.30;95.00
40932;DHT22;36257;46.052;12.540;2023-06-14T00:55:11;18.30;95.40
40932;DHT22;36257;46.052;12.540;2023-06-14T00:57:37;18.30;95.00
40932;DHT22;36257;46.052;12.540;2023-06-14T01:00:03;18.20;95.40
40932;DHT22;36257;46.052;12.540;2023-06-14T01:02:35;18.30;95.20
40932;DHT22;36257;46.052;12.540;2023-06-14T01:05:02;18.30;95.50
40932;DHT22;36257;46.052;12.540;2023-06-14T01:13:07;18.20;95.30
40932;DHT22;36257;46.052;12.540;2023-06-14T01:15:34;18.20;95.70
40932;DHT22;36257;46.052;12.540;2023-06-14T01:18:00;18.20;96.00
40932;DHT22;36257;46.052;12.540;2023-06-14T01:20:31;18.20;96.10
40932;DHT22;36257;46.052;12.540;2023-06-14T01:22:58;18.10;96.50
40932;DHT22;36257;46.052;12.540;2023-06-14T01:25:24;18.10;96.10
40932;DHT22;36257;46.052;12.540;2023-06-14T01:27:53;18.10;96.30
40932;DHT22;36257;46.052;12.540;2023-06-14T01:30:21;18.00;96.30
40932;DHT22;36257;46.052;12.540;2023-06-14T01:32:48;17.90;96.50
40932;DHT22;36257;46.052;12.540;2023-06-14T01:35:16;18.00;96.80
40932;DHT22;36257;46.052;12.540;2023-06-14T01:37:43;18.00;94.90
40932;DHT22;36257;46.052;12.540;2023-06-14T01:40:10;18.10;94.40
40932;DHT22;36257;46.052;12.540;2023-06-14T01:42:38;18.10;94.90
40932;DHT22;36257;46.052;12.540;2023-06-14T01:45:05;18.10;95.20
40932;DHT22;36257;46.052;12.540;2023-06-14T01:47:33;18.20;95.20
40932;DHT22;36257;46.052;12.540;2023-06-14T01:49:59;18.20;95.60
40932;DHT22;36257;46.052;12.540;2023-06-14T01:52:25;18.10;96.20
40932;DHT22;36257;46.052;12.540;2023-06-14T01:54:51;18.10;95.50
40932;DHT22;36257;46.052;12.540;2023-06-14T01:57:17;18.10;95.00
40932;DHT22;36257;46.052;12.540;2023-06-14T01:59:42;18.10;95.00
40932;DHT22;36257;46.052;12.540;2023-06-14T02:02:14;18.00;95.40
40932;DHT22;36257;46.052;12.540;2023-06-14T02:04:40;18.00;95.60
40932;DHT22;36257;46.052;12.540;2023-06-14T02:07:06;18.00;95.70
40932;DHT22;36257;46.052;12.540;2023-06-14T02:09:33;18.00;95.90
40932;DHT22;36257;46.052;12.540;2023-06-14T02:11:59;18.10;96.30
40932;DHT22;36257;46.052;12.540;2023-06-14T02:14:25;18.10;95.50
40932;DHT22;36257;46.052;12.540;2023-06-14T02:16:51;18.10;94.90
40932;DHT22;36257;46.052;12.540;2023-06-14T02:19:19;18.10;94.40
40932;DHT22;36257;46.052;12.540;2023-06-14T02:21:46;18.10;94.70
40932;DHT22;36257;46.052;12.540;2023-06-14T02:24:12;18.10;94.40
40932;DHT22;36257;46.052;12.540;2023-06-14T02:26:39;18.20;94.40
40932;DHT22;36257;46.052;12.540;2023-06-14T02:29:05;18.20;94.60
40932;DHT22;36257;46.052;12.540;2023-06-14T02:31:31;18.20;94.50
40932;DHT22;36257;46.052;12.540;2023-06-14T02:33:57;18.20;94.30
40932;DHT22;36257;46.052;12.540;2023-06-14T02:36:23;18.20;94.50
40932;DHT22;36257;46.052;12.540;2023-06-14T02:38:49;18.20;94.60
40932;DHT22;36257;46.052;12.540;2023-06-14T02:41:15;18.20;95.10
40932;DHT22;36257;46.052;12.540;2023-06-14T02:43:40;18.20;95.30
40932;DHT22;36257;46.052;12.540;2023-06-14T02:46:06;18.20;95.20
40932;DHT22;36257;46.052;12.540;2023-06-14T02:48:32;18.10;95.80
40932;DHT22;36257;46.052;12.540;2023-06-14T02:50:58;18.00;96.70
40932;DHT22;36257;46.052;12.540;2023-06-14T02:53:24;17.90;97.50
40932;DHT22;36257;46.052;12.540;2023-06-14T02:55:49;17.80;97.40
40932;DHT22;36257;46.052;12.540;2023-06-14T02:58:15;17.80;97.10
40932;DHT22;36257;46.052;12.540;2023-06-14T03:00:42;17.70;96.70
40932;DHT22;36257;46.052;12.540;2023-06-14T03:03:08;17.80;96.40
40932;DHT22;36257;46.052;12.540;2023-06-14T03:05:42;17.80;95.90
40932;DHT22;36257;46.052;12.540;2023-06-14T03:08:11;17.80;96.10
40932;DHT22;36257;46.052;12.540;2023-06-14T03:10:42;17.80;96.10
40932;DHT22;36257;46.052;12.540;2023-06-14T03:13:08;17.80;96.10
40932;DHT22;36257;46.052;12.540;2023-06-14T03:15:36;17.80;96.10
40932;DHT22;36257;46.052;12.540;2023-06-14T03:18:02;17.80;96.20
40932;DHT22;36257;46.052;12.540;2023-06-14T03:20:29;17.70;96.00
40932;DHT22;36257;46.052;12.540;2023-06-14T03:22:59;17.70;96.00
40932;DHT22;36257;46.052;12.540;2023-06-14T03:25:25;17.70;96.10
40932;DHT22;36257;46.052;12.540;2023-06-14T03:27:51;17.70;95.50
40932;DHT22;36257;46.052;12.540;2023-06-14T03:30:17;17.70;95.30
40932;DHT22;36257;46.052;12.540;2023-06-14T03:32:43;17.70;95.10
40932;DHT22;36257;46.052;12.540;2023-06-14T03:35:08;17.80;95.30
40932;DHT22;36257;46.052;12.540;2023-06-14T03:37:35;17.80;95.00
40932;DHT22;36257;46.052;12.540;2023-06-14T03:40:01;17.80;95.00
40932;DHT22;36257;46.052;12.540;2023-06-14T03:42:27;17.80;94.90
40932;DHT22;36257;46.052;12.540;2023-06-14T03:44:53;17.80;94.70
40932;DHT22;36257;46.052;12.540;2023-06-14T03:47:18;17.80;95.30
40932;DHT22;36257;46.052;12.540;2023-06-14T03:49:44;17.80;95.30
40932;DHT22;36257;46.052;12.540;2023-06-14T03:52:09;17.90;94.80
40932;DHT22;36257;46.052;12.540;2023-06-14T03:54:35;17.90;94.90
40932;DHT22;36257;46.052;12.540;2023-06-14T03:57:01;17.90;94.80
40932;DHT22;36257;46.052;12.540;2023-06-14T03:59:27;18.00;94.80
40932;DHT22;36257;46.052;12.540;2023-06-14T04:01:54;18.00;94.80
40932;DHT22;36257;46.052;12.540;2023-06-14T04:04:20;18.00;95.10
40932;DHT22;36257;46.052;12.540;2023-06-14T04:06:46;18.00;94.90
40932;DHT22;36257;46.052;12.540;2023-06-14T04:09:13;18.00;95.00
40932;DHT22;36257;46.052;12.540;2023-06-14T04:11:39;18.00;95.30
40932;DHT22;36257;46.052;12.540;2023-06-14T04:14:05;18.00;95.30
40932;DHT22;36257;46.052;12.540;2023-06-14T04:16:31;18.10;95.10
40932;DHT22;36257;46.052;12.540;2023-06-14T04:18:57;18.10;95.50
40932;DHT22;36257;46.052;12.540;2023-06-14T04:21:23;18.10;95.60
40932;DHT22;36257;46.052;12.540;2023-06-14T04:23:49;18.10;95.20
40932;DHT22;36257;46.052;12.540;2023-06-14T04:26:18;18.20;95.20
40932;DHT22;36257;46.052;12.540;2023-06-14T04:28:45;18.20;95.50
40932;DHT22;36257;46.052;12.540;2023-06-14T04:31:12;18.30;95.60
40932;DHT22;36257;46.052;12.540;2023-06-14T04:33:38;18.30;95.50
40932;DHT22;36257;46.052;12.540;2023-06-14T04:36:11;18.40;95.30
40932;DHT22;36257;46.052;12.540;2023-06-14T04:38:39;18.40;95.00
40932;DHT22;36257;46.052;12.540;2023-06-14T04:41:04;18.40;95.50
40932;DHT22;36257;46.052;12.540;2023-06-14T04:43:31;18.50;95.70
40932;DHT22;36257;46.052;12.540;2023-06-14T04:46:04;18.50;95.30
40932;DHT22;36257;46.052;12.540;2023-06-14T04:48:31;18.50;95.60
40932;DHT22;36257;46.052;12.540;2023-06-14T04:50:57;18.60;95.60
40932;DHT22;36257;46.052;12.540;2023-06-14T04:53:23;18.60;95.50
40932;DHT22;36257;46.052;12.540;2023-06-14T04:55:49;18.60;95.70
40932;DHT22;36257;46.052;12.540;2023-06-14T04:58:16;18.60;95.70
40932;DHT22;36257;46.052;12.540;2023-06-14T05:00:41;18.70;96.20
40932;DHT22;36257;46.052;12.540;2023-06-14T05:03:09;18.70;96.10
40932;DHT22;36257;46.052;12.540;2023-06-14T05:05:34;18.70;95.90
40932;DHT22;36257;46.052;12.540;2023-06-14T05:08:00;18.70;96.10
40932;DHT22;36257;46.052;12.540;2023-06-14T05:10:26;18.70;96.30
40932;DHT22;36257;46.052;12.540;2023-06-14T05:12:51;18.70;96.60
40932;DHT22;36257;46.052;12.540;2023-06-14T05:15:18;18.70;96.10
40932;DHT22;36257;46.052;12.540;2023-06-14T05:17:45;18.70;96.00
40932;DHT22;36257;46.052;12.540;2023-06-14T05:20:18;18.70;96.00
40932;DHT22;36257;46.052;12.540;2023-06-14T05:22:44;18.80;95.80
40932;DHT22;36257;46.052;12.540;2023-06-14T05:25:10;18.80;95.70
40932;DHT22;36257;46.052;12.540;2023-06-14T05:27:35;18.90;95.60
40932;DHT22;36257;46.052;12.540;2023-06-14T05:30:02;19.00;95.60
40932;DHT22;36257;46.052;12.540;2023-06-14T05:32:29;19.00;95.50
40932;DHT22;36257;46.052;12.540;2023-06-14T05:34:55;19.00;95.50
40932;DHT22;36257;46.052;12.540;2023-06-14T05:37:21;19.10;95.40
40932;DHT22;36257;46.052;12.540;2023-06-14T05:39:46;19.20;95.60
40932;DHT22;36257;46.052;12.540;2023-06-14T05:42:12;19.30;95.60
40932;DHT22;36257;46.052;12.540;2023-06-14T05:44:38;19.30;95.60
40932;DHT22;36257;46.052;12.540;2023-06-14T05:47:04;19.40;95.50
40932;DHT22;36257;46.052;12.540;2023-06-14T05:49:29;19.40;96.00
40932;DHT22;36257;46.052;12.540;2023-06-14T05:51:55;19.50;96.20
40932;DHT22;36257;46.052;12.540;2023-06-14T05:54:21;19.60;95.70
40932;DHT22;36257;46.052;12.540;2023-06-14T05:56:46;19.60;95.90
40932;DHT22;36257;46.052;12.540;2023-06-14T05:59:12;19.70;96.00
40932;DHT22;36257;46.052;12.540;2023-06-14T06:01:37;19.80;96.80
40932;DHT22;36257;46.052;12.540;2023-06-14T06:04:05;19.90;96.30
40932;DHT22;36257;46.052;12.540;2023-06-14T06:06:31;20.00;95.50
40932;DHT22;36257;46.052;12.540;2023-06-14T06:08:57;20.10;95.80
40932;DHT22;36257;46.052;12.540;2023-06-14T06:11:23;20.20;96.30
40932;DHT22;36257;46.052;12.540;2023-06-14T06:13:49;20.30;96.60
40932;DHT22;36257;46.052;12.540;2023-06-14T06:16:15;20.50;95.70
40932;DHT22;36257;46.052;12.540;2023-06-14T06:18:40;20.60;95.00
40932;DHT22;36257;46.052;12.540;2023-06-14T06:21:06;20.70;93.40
40932;DHT22;36257;46.052;12.540;2023-06-14T06:23:32;20.80;93.70
40932;DHT22;36257;46.052;12.540;2023-06-14T06:25:57;21.00;92.80
40932;DHT22;36257;46.052;12.540;2023-06-14T06:28:23;21.10;89.90
40932;DHT22;36257;46.052;12.540;2023-06-14T06:30:49;21.20;90.50
40932;DHT22;36257;46.052;12.540;2023-06-14T06:33:15;21.40;88.40
40932;DHT22;36257;46.052;12.540;2023-06-14T06:35:41;21.50;88.80
40932;DHT22;36257;46.052;12.540;2023-06-14T06:38:07;21.60;85.40
40932;DHT22;36257;46.052;12.540;2023-06-14T06:40:34;21.80;84.00
40932;DHT22;36257;46.052;12.540;2023-06-14T06:42:59;21.90;86.10
40932;DHT22;36257;46.052;12.540;2023-06-14T06:45:25;22.00;84.40
40932;DHT22;36257;46.052;12.540;2023-06-14T06:47:51;22.10;82.70
40932;DHT22;36257;46.052;12.540;2023-06-14T06:50:18;22.20;83.40
40932;DHT22;36257;46.052;12.540;2023-06-14T06:52:44;22.40;82.90
40932;DHT22;36257;46.052;12.540;2023-06-14T06:55:10;22.60;80.00
40932;DHT22;36257;46.052;12.540;2023-06-14T06:57:36;22.70;82.20
40932;DHT22;36257;46.052;12.540;2023-06-14T07:00:02;22.80;79.80
40932;DHT22;36257;46.052;12.540;2023-06-14T07:02:33;22.80;85.20
40932;DHT22;36257;46.052;12.540;2023-06-14T07:04:58;22.90;84.10
40932;DHT22;36257;46.052;12.540;2023-06-14T07:07:24;23.00;84.20
40932;DHT22;36257;46.052;12.540;2023-06-14T07:09:50;23.00;83.70
40932;DHT22;36257;46.052;12.540;2023-06-14T07:12:16;23.10;84.60
40932;DHT22;36257;46.052;12.540;2023-06-14T07:14:41;23.10;83.30
40932;DHT22;36257;46.052;12.540;2023-06-14T07:17:07;23.20;83.60
40932;DHT22;36257;46.052;12.540;2023-06-14T07:19:32;23.20;83.10
40932;DHT22;36257;46.052;12.540;2023-06-14T07:21:58;23.20;82.20
40932;DHT22;36257;46.052;12.540;2023-06-14T07:24:24;23.30;82.90
40932;DHT22;36257;46.052;12.540;2023-06-14T07:26:49;23.40;83.50
40932;DHT22;36257;46.052;12.540;2023-06-14T07:29:15;23.50;82.10
40932;DHT22;36257;46.052;12.540;2023-06-14T07:31:42;23.60;81.20
40932;DHT22;36257;46.052;12.540;2023-06-14T07:34:08;23.60;82.40
40932;DHT22;36257;46.052;12.540;2023-06-14T07:36:33;23.80;81.70
40932;DHT22;36257;46.052;12.540;2023-06-14T07:38:59;23.80;80.00
40932;DHT22;36257;46.052;12.540;2023-06-14T07:41:25;23.90;81.10
40932;DHT22;36257;46.052;12.540;2023-06-14T07:43:51;23.90;79.40
40932;DHT22;36257;46.052;12.540;2023-06-14T07:46:16;24.00;79.30
40932;DHT22;36257;46.052;12.540;2023-06-14T07:48:42;24.10;78.10
40932;DHT22;36257;46.052;12.540;2023-06-14T07:51:08;24.10;76.50
40932;DHT22;36257;46.052;12.540;2023-06-14T07:53:33;24.20;77.40
40932;DHT22;36257;46.052;12.540;2023-06-14T07:55:59;24.30;77.00
40932;DHT22;36257;46.052;12.540;2023-06-14T07:58:25;24.60;76.80
40932;DHT22;36257;46.052;12.540;2023-06-14T08:00:51;24.70;77.10
40932;DHT22;36257;46.052;12.540;2023-06-14T08:03:17;24.60;78.80
40932;DHT22;36257;46.052;12.540;2023-06-14T08:05:43;24.60;77.30
40932;DHT22;36257;46.052;12.540;2023-06-14T08:08:09;24.50;76.10
40932;DHT22;36257;46.052;12.540;2023-06-14T08:10:34;24.40;78.50
40932;DHT22;36257;46.052;12.540;2023-06-14T08:13:00;24.40;78.10
40932;DHT22;36257;46.052;12.540;2023-06-14T08:15:26;24.50;78.50
40932;DHT22;36257;46.052;12.540;2023-06-14T08:17:51;24.50;78.10
40932;DHT22;36257;46.052;12.540;2023-06-14T08:20:17;24.30;77.40
40932;DHT22;36257;46.052;12.540;2023-06-14T08:22:43;24.20;79.00
40932;DHT22;36257;46.052;12.540;2023-06-14T08:25:09;24.10;78.70
40932;DHT22;36257;46.052;12.540;2023-06-14T08:27:36;24.10;79.60
40932;DHT22;36257;46.052;12.540;2023-06-14T08:30:02;24.00;76.60
40932;DHT22;36257;46.052;12.540;2023-06-14T08:32:28;23.90;76.40
40932;DHT22;36257;46.052;12.540;2023-06-14T08:34:54;23.80;79.30
40932;DHT22;36257;46.052;12.540;2023-06-14T08:37:20;23.80;79.30
40932;DHT22;36257;46.052;12.540;2023-06-14T08:39:46;23.90;77.90
40932;DHT22;36257;46.052;12.540;2023-06-14T08:42:12;24.00;79.20
40932;DHT22;36257;46.052;12.540;2023-06-14T08:44:39;24.00;79.90
40932;DHT22;36257;46.052;12.540;2023-06-14T08:47:07;24.20;78.90
40932;DHT22;36257;46.052;12.540;2023-06-14T08:49:33;24.30;78.30
40932;DHT22;36257;46.052;12.540;2023-06-14T08:52:01;24.30;76.80
40932;DHT22;36257;46.052;12.540;2023-06-14T08:54:30;24.30;77.80
40932;DHT22;36257;46.052;12.540;2023-06-14T08:56:57;24.40;77.70
40932;DHT22;36257;46.052;12.540;2023-06-14T08:59:28;24.50;77.10
40932;DHT22;36257;46.052;12.540;2023-06-14T09:01:54;24.80;77.10
40932;DHT22;36257;46.052;12.540;2023-06-14T09:04:23;25.20;78.20
40932;DHT22;36257;46.052;12.540;2023-06-14T09:06:55;25.30;75.00
40932;DHT22;36257;46.052;12.540;2023-06-14T09:09:21;25.60;75.70
40932;DHT22;36257;46.052;12.540;2023-06-14T09:11:51;25.80;74.40
40932;DHT22;36257;46.052;12.540;2023-06-14T09:14:18;25.90;71.40
40932;DHT22;36257;46.052;12.540;2023-06-14T09:16:44;25.80;72.00
40932;DHT22;36257;46.052;12.540;2023-06-14T09:19:20;25.80;72.20
40932;DHT22;36257;46.052;12.540;2023-06-14T09:21:48;25.80;71.90
40932;DHT22;36257;46.052;12.540;2023-06-14T09:24:14;25.80;72.80
40932;DHT22;36257;46.052;12.540;2023-06-14T09:26:40;25.70;73.00
40932;DHT22;36257;46.052;12.540;2023-06-14T09:29:06;25.50;74.10
40932;DHT22;36257;46.052;12.540;2023-06-14T09:31:32;25.50;70.70
40932;DHT22;36257;46.052;12.540;2023-06-14T09:33:58;25.40;73.10
40932;DHT22;36257;46.052;12.540;2023-06-14T09:36:27;25.40;72.50
40932;DHT22;36257;46.052;12.540;2023-06-14T09:39:01;25.20;71.80
40932;DHT22;36257;46.052;12.540;2023-06-14T09:41:36;25.10;73.40
40932;DHT22;36257;46.052;12.540;2023-06-14T09:44:09;25.10;73.50
40932;DHT22;36257;46.052;12.540;2023-06-14T09:46:36;25.10;74.50
40932;DHT22;36257;46.052;12.540;2023-06-14T09:49:02;25.20;75.20
40932;DHT22;36257;46.052;12.540;2023-06-14T09:51:29;25.30;73.60
40932;DHT22;36257;46.052;12.540;2023-06-14T09:54:01;25.40;72.60
40932;DHT22;36257;46.052;12.540;2023-06-14T09:56:35;25.50;72.50
40932;DHT22;36257;46.052;12.540;2023-06-14T09:59:05;25.50;74.00
40932;DHT22;36257;46.052;12.540;2023-06-14T10:01:33;25.50;73.70
40932;DHT22;36257;46.052;12.540;2023-06-14T10:04:03;25.60;71.10
40932;DHT22;36257;46.052;12.540;2023-06-14T10:06:29;25.50;71.40
40932;DHT22;36257;46.052;12.540;2023-06-14T10:08:59;25.50;73.30
40932;DHT22;36257;46.052;12.540;2023-06-14T10:11:26;25.30;72.30
40932;DHT22;36257;46.052;12.540;2023-06-14T10:13:53;25.30;72.20
40932;DHT22;36257;46.052;12.540;2023-06-14T10:16:33;25.20;72.70
40932;DHT22;36257;46.052;12.540;2023-06-14T10:19:24;25.20;74.90
40932;DHT22;36257;46.052;12.540;2023-06-14T10:22:09;25.50;71.90
40932;DHT22;36257;46.052;12.540;2023-06-14T10:24:43;26.00;72.00
40932;DHT22;36257;46.052;12.540;2023-06-14T10:27:10;26.60;72.10
40932;DHT22;36257;46.052;12.540;2023-06-14T10:32:20;27.60;68.70
40932;DHT22;36257;46.052;12.540;2023-06-14T10:34:57;27.80;68.80
40932;DHT22;36257;46.052;12.540;2023-06-14T10:37:23;28.10;66.80
40932;DHT22;36257;46.052;12.540;2023-06-14T10:39:50;28.40;68.60
40932;DHT22;36257;46.052;12.540;2023-06-14T10:42:16;28.80;69.20
40932;DHT22;36257;46.052;12.540;2023-06-14T10:44:49;28.80;66.50
40932;DHT22;36257;46.052;12.540;2023-06-14T10:47:36;29.00;65.20
40932;DHT22;36257;46.052;12.540;2023-06-14T10:50:10;29.00;67.60
40932;DHT22;36257;46.052;12.540;2023-06-14T10:52:40;29.20;64.70
40932;DHT22;36257;46.052;12.540;2023-06-14T10:55:11;29.30;65.90
40932;DHT22;36257;46.052;12.540;2023-06-14T10:57:42;29.50;65.50
40932;DHT22;36257;46.052;12.540;2023-06-14T11:00:09;29.40;63.60
40932;DHT22;36257;46.052;12.540;2023-06-14T11:08:47;29.70;65.30
40932;DHT22;36257;46.052;12.540;2023-06-14T11:11:18;29.80;64.30
40932;DHT22;36257;46.052;12.540;2023-06-14T11:13:46;29.80;64.90
40932;DHT22;36257;46.052;12.540;2023-06-14T11:16:14;29.80;62.60
40932;DHT22;36257;46.052;12.540;2023-06-14T11:18:40;29.80;63.40
40932;DHT22;36257;46.052;12.540;2023-06-14T11:21:06;29.80;65.60
40932;DHT22;36257;46.052;12.540;2023-06-14T11:23:32;29.60;64.10
40932;DHT22;36257;46.052;12.540;2023-06-14T11:25:57;29.70;65.50
40932;DHT22;36257;46.052;12.540;2023-06-14T11:28:23;29.80;61.90
40932;DHT22;36257;46.052;12.540;2023-06-14T11:31:15;29.60;64.70
40932;DHT22;36257;46.052;12.540;2023-06-14T11:33:41;29.70;62.20
40932;DHT22;36257;46.052;12.540;2023-06-14T11:36:06;29.50;64.00
40932;DHT22;36257;46.052;12.540;2023-06-14T11:38:37;29.70;65.40
40932;DHT22;36257;46.052;12.540;2023-06-14T11:41:02;29.70;64.70
40932;DHT22;36257;46.052;12.540;2023-06-14T11:43:28;29.60;62.40
40932;DHT22;36257;46.052;12.540;2023-06-14T11:45:54;29.50;61.60
40932;DHT22;36257;46.052;12.540;2023-06-14T11:48:20;29.60;66.60
40932;DHT22;36257;46.052;12.540;2023-06-14T11:50:50;29.70;63.80
40932;DHT22;36257;46.052;12.540;2023-06-14T11:53:16;29.80;63.30
40932;DHT22;36257;46.052;12.540;2023-06-14T11:55:42;29.90;64.90
40932;DHT22;36257;46.052;12.540;2023-06-14T11:58:10;29.80;64.30
40932;DHT22;36257;46.052;12.540;2023-06-14T12:00:36;29.90;62.00
40932;DHT22;36257;46.052;12.540;2023-06-14T12:03:02;29.90;63.30
40932;DHT22;36257;46.052;12.540;2023-06-14T12:05:28;29.90;62.10
40932;DHT22;36257;46.052;12.540;2023-06-14T12:08:02;29.90;63.30
40932;DHT22;36257;46.052;12.540;2023-06-14T12:10:29;29.70;62.70
40932;DHT22;36257;46.052;12.540;2023-06-14T12:12:59;29.50;63.30
40932;DHT22;36257;46.052;12.540;2023-06-14T12:15:27;29.30;61.50
40932;DHT22;36257;46.052;12.540;2023-06-14T12:17:54;29.40;64.00
40932;DHT22;36257;46.052;12.540;2023-06-14T12:20:20;29.30;61.30
40932;DHT22;36257;46.052;12.540;2023-06-14T12:22:54;29.50;64.90
40932;DHT22;36257;46.052;12.540;2023-06-14T12:25:34;29.80;65.60
40932;DHT22;36257;46.052;12.540;2023-06-14T12:28:10;30.20;66.20
40932;DHT22;36257;46.052;12.540;2023-06-14T12:30:37;30.40;61.60
40932;DHT22;36257;46.052;12.540;2023-06-14T12:33:03;30.40;59.20
40932;DHT22;36257;46.052;12.540;2023-06-14T12:35:29;30.30;60.40
40932;DHT22;36257;46.052;12.540;2023-06-14T12:37:54;30.40;61.40
40932;DHT22;36257;46.052;12.540;2023-06-14T12:40:22;30.60;61.30
40932;DHT22;36257;46.052;12.540;2023-06-14T12:42:47;30.70;63.70
40932;DHT22;36257;46.052;12.540;2023-06-14T12:45:13;30.80;63.40
40932;DHT22;36257;46.052;12.540;2023-06-14T12:47:39;30.80;59.80
40932;DHT22;36257;46.052;12.540;2023-06-14T12:50:05;30.50;60.40
40932;DHT22;36257;46.052;12.540;2023-06-14T12:52:32;30.20;62.70
40932;DHT22;36257;46.052;12.540;2023-06-14T12:55:04;30.20;63.10
40932;DHT22;36257;46.052;12.540;2023-06-14T12:57:31;30.30;63.50
40932;DHT22;36257;46.052;12.540;2023-06-14T12:59:56;30.30;58.90
40932;DHT22;36257;46.052;12.540;2023-06-14T13:02:22;30.00;60.60
40932;DHT22;36257;46.052;12.540;2023-06-14T13:04:49;29.70;60.20
40932;DHT22;36257;46.052;12.540;2023-06-14T13:07:15;29.60;61.90
40932;DHT22;36257;46.052;12.540;2023-06-14T13:09:41;29.50;59.60
40932;DHT22;36257;46.052;12.540;2023-06-14T13:12:11;29.50;62.10
40932;DHT22;36257;46.052;12.540;2023-06-14T13:14:38;29.40;61.80
40932;DHT22;36257;46.052;12.540;2023-06-14T13:17:04;29.30;59.20
40932;DHT22;36257;46.052;12.540;2023-06-14T13:19:31;29.40;59.80
40932;DHT22;36257;46.052;12.540;2023-06-14T13:21:56;29.40;62.90
40932;DHT22;36257;46.052;12.540;2023-06-14T13:24:22;29.50;62.80
40932;DHT22;36257;46.052;12.540;2023-06-14T13:26:48;29.50;60.90
40932;DHT22;36257;46.052;12.540;2023-06-14T13:29:13;29.50;60.20
40932;DHT22;36257;46.052;12.540;2023-06-14T13:31:39;29.50;63.60
40932;DHT22;36257;46.052;12.540;2023-06-14T13:34:05;29.60;61.30
40932;DHT22;36257;46.052;12.540;2023-06-14T13:36:31;29.70;63.70
40932;DHT22;36257;46.052;12.540;2023-06-14T13:38:56;29.90;58.50
40932;DHT22;36257;46.052;12.540;2023-06-14T13:41:25;29.80;59.20
40932;DHT22;36257;46.052;12.540;2023-06-14T13:43:57;29.70;59.40
40932;DHT22;36257;46.052;12.540;2023-06-14T13:46:22;29.70;61.60
40932;DHT22;36257;46.052;12.540;2023-06-14T13:48:48;29.70;60.80
40932;DHT22;36257;46.052;12.540;2023-06-14T13:51:14;29.80;63.30
40932;DHT22;36257;46.052;12.540;2023-06-14T13:53:39;29.90;60.70
40932;DHT22;36257;46.052;12.540;2023-06-14T13:56:05;29.80;60.20
40932;DHT22;36257;46.052;12.540;2023-06-14T13:58:31;29.70;59.00
40932;DHT22;36257;46.052;12.540;2023-06-14T14:00:56;29.70;58.90
40932;DHT22;36257;46.052;12.540;2023-06-14T14:03:22;29.80;59.70
40932;DHT22;36257;46.052;12.540;2023-06-14T14:05:48;29.80;60.70
40932;DHT22;36257;46.052;12.540;2023-06-14T14:08:13;29.80;61.40
40932;DHT22;36257;46.052;12.540;2023-06-14T14:10:39;29.80;62.50
40932;DHT22;36257;46.052;12.540;2023-06-14T14:13:04;29.80;62.00
40932;DHT22;36257;46.052;12.540;2023-06-14T14:15:30;29.50;59.70
40932;DHT22;36257;46.052;12.540;2023-06-14T14:17:56;29.40;60.90
40932;DHT22;36257;46.052;12.540;2023-06-14T14:20:23;29.40;60.30
40932;DHT22;36257;46.052;12.540;2023-06-14T14:22:48;29.30;60.30
40932;DHT22;36257;46.052;12.540;2023-06-14T14:25:14;29.30;62.50
40932;DHT22;36257;46.052;12.540;2023-06-14T14:27:40;29.40;63.10
40932;DHT22;36257;46.052;12.540;2023-06-14T14:30:06;29.40;62.40
40932;DHT22;36257;46.052;12.540;2023-06-14T14:32:32;29.40;62.80
40932;DHT22;36257;46.052;12.540;2023-06-14T14:34:58;29.50;60.60
40932;DHT22;36257;46.052;12.540;2023-06-14T14:37:23;29.30;59.00
40932;DHT22;36257;46.052;12.540;2023-06-14T14:39:50;29.20;60.80
40932;DHT22;36257;46.052;12.540;2023-06-14T14:42:15;29.30;60.70
40932;DHT22;36257;46.052;12.540;2023-06-14T14:44:41;29.20;61.80
40932;DHT22;36257;46.052;12.540;2023-06-14T14:47:07;29.20;60.10
40932;DHT22;36257;46.052;12.540;2023-06-14T14:49:32;29.20;64.20
40932;DHT22;36257;46.052;12.540;2023-06-14T14:51:58;29.20;63.60
40932;DHT22;36257;46.052;12.540;2023-06-14T14:54:24;29.20;60.50
40932;DHT22;36257;46.052;12.540;2023-06-14T14:56:51;29.20;62.00
40932;DHT22;36257;46.052;12.540;2023-06-14T14:59:16;29.00;60.60
40932;DHT22;36257;46.052;12.540;2023-06-14T15:01:42;28.90;62.90
40932;DHT22;36257;46.052;12.540;2023-06-14T15:04:08;29.00;61.50
40932;DHT22;36257;46.052;12.540;2023-06-14T15:06:34;29.00;61.70
40932;DHT22;36257;46.052;12.540;2023-06-14T15:09:04;29.00;62.30
40932;DHT22;36257;46.052;12.540;2023-06-14T15:11:29;28.90;61.50
40932;DHT22;36257;46.052;12.540;2023-06-14T15:13:55;28.70;61.60
40932;DHT22;36257;46.052;12.540;2023-06-14T15:16:21;28.70;61.50
40932;DHT22;36257;46.052;12.540;2023-06-14T15:18:46;28.60;63.40
40932;DHT22;36257;46.052;12.540;2023-06-14T15:21:12;28.60;63.50
40932;DHT22;36257;46.052;12.540;2023-06-14T15:23:38;28.50;63.60
40932;DHT22;36257;46.052;12.540;2023-06-14T15:26:04;28.40;64.20
40932;DHT22;36257;46.052;12.540;2023-06-14T15:28:30;28.50;64.30